Time;durP1;ratioP1;P1;durP2;ratioP2;P2;SDS_P1;SDS_P2;PMS_P1;PMS_P2;Temp;Humidity;BMP_temperature;BMP_pressure;BME280_temperature;BME280_humidity;BME280_pressure;Samples;Min_cycle;Max_cycle;Signal;HPM_P1;HPM_P2
2023/06/06 00:01:27;;;;;;;6.40;4.95;;;;;;;12.00;100.00;97249.47;4958668;28;20526;-60
2023/06/06 00:03:55;;;;;;;4.82;3.30;;;;;;;11.98;100.00;97262.50;4958388;28;20050;-60
2023/06/06 00:06:24;;;;;;;4.97;3.20;;;;;;;12.08;100.00;97264.47;4960702;28;20093;-60
2023/06/06 00:08:52;;;;;;;5.90;3.47;;;;;;;12.00;100.00;97249.47;4960845;28;20039;-63
2023/06/06 00:11:20;;;;;;;5.50;3.83;;;;;;;12.12;100.00;97253.91;4957929;28;20454;-63
2023/06/06 00:13:49;;;;;;;5.35;3.40;;;;;;;12.01;100.00;97256.53;4960644;28;20150;-61
2023/06/06 00:16:17;;;;;;;8.07;4.25;;;;;;;11.90;100.00;97254.88;4955574;28;20051;-63
2023/06/06 00:18:45;;;;;;;5.38;3.30;;;;;;;12.13;100.00;97256.38;4958104;28;20043;-63
2023/06/06 00:21:12;;;;;;;5.07;3.13;;;;;;;12.10;100.00;97251.47;4960704;28;20643;-60
2023/06/06 00:23:39;;;;;;;5.63;3.63;;;;;;;11.65;100.00;97259.84;4956872;28;20098;-62
2023/06/06 00:26:05;;;;;;;5.68;3.55;;;;;;;11.50;100.00;97263.28;4961029;28;20047;-62
2023/06/06 00:28:32;;;;;;;6.13;3.70;;;;;;;11.61;100.00;97263.38;4964507;28;20878;-62
2023/06/06 00:30:59;;;;;;;6.03;3.80;;;;;;;11.55;100.00;97263.34;4958831;28;20049;-62
2023/06/06 00:33:25;;;;;;;7.90;3.28;;;;;;;11.50;100.00;97265.19;4958716;28;20093;-62
2023/06/06 00:35:53;;;;;;;5.00;3.50;;;;;;;11.50;100.00;97266.00;4960693;28;20054;-63
2023/06/06 00:38:19;;;;;;;7.63;3.65;;;;;;;11.71;100.00;97264.25;4954027;28;20689;-63
2023/06/06 00:40:46;;;;;;;6.10;3.45;;;;;;;11.45;100.00;97264.09;4960851;28;20058;-63
2023/06/06 00:43:13;;;;;;;5.75;3.58;;;;;;;11.49;100.00;97260.84;4961906;28;20050;-63
2023/06/06 00:45:39;;;;;;;6.90;4.00;;;;;;;11.41;100.00;97262.97;4962906;28;20034;-62
2023/06/06 00:48:06;;;;;;;5.88;3.83;;;;;;;11.40;100.00;97258.63;4957645;28;20066;-63
2023/06/06 00:50:34;;;;;;;5.90;3.20;;;;;;;11.46;100.00;97256.75;4962939;28;20085;-63
2023/06/06 00:53:01;;;;;;;5.40;3.13;;;;;;;11.38;100.00;97258.06;4963263;28;20043;-62
2023/06/06 00:55:28;;;;;;;4.97;3.00;;;;;;;11.32;100.00;97262.63;4953270;28;20036;-63
2023/06/06 00:57:56;;;;;;;5.55;3.33;;;;;;;11.21;100.00;97251.97;4959217;28;20421;-62
2023/06/06 01:00:22;;;;;;;7.13;3.58;;;;;;;11.21;100.00;97251.97;4953952;28;20042;-62
2023/06/06 01:02:49;;;;;;;6.95;3.63;;;;;;;11.18;100.00;97253.31;4943783;28;20133;-62
2023/06/06 01:05:18;;;;;;;5.65;3.50;;;;;;;10.98;100.00;97251.25;4962307;28;20053;-62
2023/06/06 01:07:50;;;;;;;5.53;3.30;;;;;;;10.92;100.00;97250.38;4957856;28;20043;-63
2023/06/06 01:10:17;;;;;;;6.30;3.65;;;;;;;11.14;100.00;97249.47;4959657;28;20049;-63
2023/06/06 01:13:03;;;;;;;5.97;3.42;;;;;;;11.15;100.00;97248.41;4960576;28;20183;-63
2023/06/06 01:15:41;;;;;;;5.07;3.08;;;;;;;10.99;100.00;97248.25;4959051;28;20039;-63
2023/06/06 01:18:11;;;;;;;5.85;3.30;;;;;;;11.06;100.00;97242.66;4962441;28;20050;-63
2023/06/06 01:20:42;;;;;;;5.95;3.45;;;;;;;11.09;100.00;97252.16;4962928;28;20071;-63
2023/06/06 01:23:10;;;;;;;6.18;3.63;;;;;;;11.26;100.00;97242.00;4960300;28;20062;-63
2023/06/06 01:25:40;;;;;;;7.32;3.15;;;;;;;11.10;100.00;97243.78;4959869;28;20039;-63
2023/06/06 01:28:12;;;;;;;4.78;2.92;;;;;;;10.93;100.00;97241.19;4973829;28;20055;-63
2023/06/06 01:30:41;;;;;;;6.68;3.70;;;;;;;10.90;100.00;97241.69;4954168;28;20051;-63
2023/06/06 01:33:35;;;;;;;7.47;3.47;;;;;;;10.78;100.00;97244.56;4955197;28;20053;-63
2023/06/06 01:36:43;;;;;;;7.60;3.72;;;;;;;10.77;100.00;97243.72;4960301;28;20577;-63
2023/06/06 01:39:16;;;;;;;5.22;3.17;;;;;;;10.97;100.00;97242.28;4951748;28;20066;-62
2023/06/06 01:41:45;;;;;;;7.70;4.00;;;;;;;11.08;100.00;97237.78;4952962;28;20051;-63
2023/06/06 01:44:15;;;;;;;6.50;3.53;;;;;;;11.17;100.00;97236.22;4956000;28;20058;-63
2023/06/06 01:46:41;;;;;;;5.28;3.72;;;;;;;11.19;100.00;97242.22;4956464;28;20041;-63
2023/06/06 01:49:11;;;;;;;7.03;3.45;;;;;;;11.44;100.00;97237.22;4963792;28;20042;-63
2023/06/06 01:51:37;;;;;;;8.45;3.53;;;;;;;11.34;100.00;97239.84;4957958;28;20043;-63
2023/06/06 01:54:05;;;;;;;7.95;3.53;;;;;;;11.30;100.00;97242.28;4959651;28;20530;-63
2023/06/06 01:56:33;;;;;;;6.63;4.05;;;;;;;11.42;100.00;97236.66;4959549;28;20035;-63
2023/06/06 01:59:00;;;;;;;4.90;3.00;;;;;;;11.45;100.00;97241.56;4977135;28;20538;-63
2023/06/06 02:01:28;;;;;;;6.93;3.78;;;;;;;11.43;100.00;97243.75;4945823;28;20051;-63
2023/06/06 02:03:55;;;;;;;5.57;3.50;;;;;;;11.10;100.00;97240.22;4955705;28;20047;-63
2023/06/06 02:06:22;;;;;;;5.45;3.63;;;;;;;11.00;100.00;97244.50;4956486;28;20121;-62
2023/06/06 02:08:49;;;;;;;5.40;3.17;;;;;;;11.09;100.00;97247.53;4972938;28;20047;-63
2023/06/06 02:11:15;;;;;;;5.50;3.45;;;;;;;11.17;100.00;97257.09;4952233;28;21005;-63
2023/06/06 02:13:42;;;;;;;6.63;3.25;;;;;;;11.14;100.00;97253.03;4958220;28;20047;-63
2023/06/06 02:16:08;;;;;;;5.95;3.30;;;;;;;10.94;100.00;97253.63;4954950;28;20047;-63
2023/06/06 02:18:35;;;;;;;5.43;3.50;;;;;;;10.70;100.00;97258.56;4961454;28;20106;-63
2023/06/06 02:21:02;;;;;;;9.27;3.40;;;;;;;10.62;100.00;97257.13;4957268;28;20470;-63
2023/06/06 02:23:28;;;;;;;7.63;3.17;;;;;;;10.49;100.00;97263.75;4965297;28;20695;-62
2023/06/06 02:25:55;;;;;;;5.68;3.42;;;;;;;10.51;100.00;97254.31;4964826;28;20053;-62
2023/06/06 02:28:23;;;;;;;9.23;3.47;;;;;;;10.74;100.00;97259.69;4959491;28;20050;-62
2023/06/06 02:30:50;;;;;;;7.93;3.20;;;;;;;10.99;100.00;97256.38;4960250;28;20130;-63
2023/06/06 02:33:16;;;;;;;6.32;3.25;;;;;;;11.17;100.00;97262.53;4964597;28;20105;-63
2023/06/06 02:35:43;;;;;;;5.95;3.47;;;;;;;11.11;100.00;97260.81;4959873;28;20159;-63
2023/06/06 02:38:11;;;;;;;7.40;3.35;;;;;;;11.04;100.00;97258.34;4960570;28;20098;-63
2023/06/06 02:40:38;;;;;;;6.22;3.42;;;;;;;10.95;100.00;97260.72;4953621;28;20073;-63
2023/06/06 02:43:04;;;;;;;5.38;2.78;;;;;;;10.93;100.00;97269.09;4965773;28;20490;-62
2023/06/06 02:45:31;;;;;;;5.70;3.10;;;;;;;10.67;100.00;97265.31;4962469;28;20050;-62
2023/06/06 02:47:58;;;;;;;5.90;3.15;;;;;;;10.66;100.00;97267.19;4964106;28;20043;-63
2023/06/06 02:50:28;;;;;;;5.93;3.35;;;;;;;10.52;100.00;97269.50;4960178;28;20509;-62
2023/06/06 02:52:55;;;;;;;5.60;3.40;;;;;;;10.53;100.00;97265.72;4957784;28;20113;-63
2023/06/06 02:55:21;;;;;;;5.07;3.00;;;;;;;10.47;100.00;97272.13;4971797;28;20066;-63
2023/06/06 02:57:50;;;;;;;5.68;3.00;;;;;;;10.58;100.00;97273.06;4964357;28;20054;-63
2023/06/06 03:00:16;;;;;;;5.18;3.25;;;;;;;10.50;100.00;97274.34;4961239;28;20046;-63
2023/06/06 03:02:43;;;;;;;5.80;3.22;;;;;;;10.36;100.00;97279.28;4960229;28;20057;-62
2023/06/06 03:05:11;;;;;;;5.15;3.17;;;;;;;10.27;100.00;97281.63;4962395;28;20054;-62
2023/06/06 03:07:38;;;;;;;5.63;3.47;;;;;;;10.22;100.00;97278.88;4954274;28;20043;-63
2023/06/06 03:10:05;;;;;;;5.63;3.72;;;;;;;10.38;100.00;97281.75;4965504;28;20039;-63
2023/06/06 03:12:37;;;;;;;6.15;3.45;;;;;;;10.26;100.00;97282.72;4959265;28;20058;-63
2023/06/06 03:15:05;;;;;;;6.82;3.58;;;;;;;9.94;100.00;97288.78;4965133;28;20054;-62
2023/06/06 03:17:36;;;;;;;5.45;3.15;;;;;;;9.85;100.00;97280.28;4959162;28;20094;-63
2023/06/06 03:20:03;;;;;;;6.07;3.60;;;;;;;9.91;100.00;97286.56;4958149;28;20043;-62
2023/06/06 03:22:31;;;;;;;7.95;3.88;;;;;;;9.84;100.00;97284.06;4961343;28;20050;-63
2023/06/06 03:24:58;;;;;;;6.05;3.45;;;;;;;9.90;100.00;97284.94;4963643;28;20082;-62
2023/06/06 03:27:25;;;;;;;6.20;4.00;;;;;;;9.86;100.00;97287.34;4955745;28;20042;-62
2023/06/06 03:29:53;;;;;;;5.93;3.83;;;;;;;9.85;100.00;97293.00;4956893;28;20657;-63
2023/06/06 03:32:23;;;;;;;6.93;3.90;;;;;;;9.89;100.00;97291.44;4972631;28;20581;-63
2023/06/06 03:34:51;;;;;;;7.10;3.70;;;;;;;10.02;100.00;97288.34;4978176;28;20074;-62
2023/06/06 03:37:18;;;;;;;7.28;3.88;;;;;;;9.96;100.00;97292.06;4956333;28;20046;-62
2023/06/06 03:39:45;;;;;;;7.53;3.78;;;;;;;9.96;100.00;97294.78;4957495;28;20047;-62
2023/06/06 03:42:12;;;;;;;10.43;4.38;;;;;;;10.04;100.00;97298.09;4955851;28;20474;-63
2023/06/06 03:44:38;;;;;;;7.07;3.63;;;;;;;10.13;100.00;97300.13;4956055;28;20055;-62
2023/06/06 03:47:05;;;;;;;7.90;3.90;;;;;;;10.28;100.00;97299.50;4958649;28;20606;-62
2023/06/06 03:49:36;;;;;;;5.20;3.33;;;;;;;10.45;100.00;97298.66;4958848;28;20096;-62
2023/06/06 03:52:04;;;;;;;6.28;3.50;;;;;;;10.53;100.00;97298.19;4954061;28;20061;-62
2023/06/06 03:54:32;;;;;;;9.85;4.10;;;;;;;10.51;100.00;97303.03;4958481;28;20042;-63
2023/06/06 03:56:59;;;;;;;8.68;4.60;;;;;;;10.54;100.00;97299.00;4956109;28;20054;-62
2023/06/06 03:59:26;;;;;;;6.13;3.72;;;;;;;10.42;100.00;97301.81;4959862;28;20050;-62
2023/06/06 04:01:53;;;;;;;5.35;3.58;;;;;;;10.32;100.00;97296.28;4971226;28;20524;-62
2023/06/06 04:04:24;;;;;;;6.25;3.55;;;;;;;10.38;100.00;97298.81;4957941;28;20087;-62
2023/06/06 04:06:50;;;;;;;5.90;3.30;;;;;;;10.42;100.00;97296.41;4960277;28;20046;-62
2023/06/06 04:09:17;;;;;;;5.93;3.78;;;;;;;10.56;100.00;97302.28;4957531;28;20085;-62
2023/06/06 04:11:44;;;;;;;8.02;3.97;;;;;;;10.47;100.00;97296.50;4953549;28;20133;-62
2023/06/06 04:14:12;;;;;;;5.63;3.53;;;;;;;10.68;100.00;97298.63;4955436;28;20057;-62
2023/06/06 04:16:40;;;;;;;6.28;3.85;;;;;;;10.75;100.00;97305.47;4962033;28;20035;-63
2023/06/06 04:19:07;;;;;;;7.60;4.05;;;;;;;10.77;100.00;97303.31;4963149;28;20042;-62
2023/06/06 04:21:34;;;;;;;7.90;4.05;;;;;;;10.83;100.00;97308.81;4964687;28;20077;-62
2023/06/06 04:24:00;;;;;;;6.55;3.97;;;;;;;10.94;100.00;97307.81;4961580;28;20688;-63
2023/06/06 04:26:31;;;;;;;7.07;4.15;;;;;;;10.93;100.00;97308.91;4960935;28;20039;-62
2023/06/06 04:29:02;;;;;;;9.50;5.50;;;;;;;10.92;100.00;97315.41;4962252;28;20039;-63
2023/06/06 04:31:29;;;;;;;8.03;4.33;;;;;;;11.01;100.00;97311.16;4955795;28;20067;-62
2023/06/06 04:33:57;;;;;;;7.38;4.00;;;;;;;11.00;100.00;97316.81;4979997;28;20049;-62
2023/06/06 04:36:26;;;;;;;6.68;3.90;;;;;;;11.07;100.00;97312.03;4973267;28;20049;-62
2023/06/06 04:39:00;;;;;;;8.13;4.32;;;;;;;11.20;100.00;97316.19;4963077;28;20085;-62
2023/06/06 04:41:30;;;;;;;6.90;4.30;;;;;;;11.26;100.00;97315.16;4955638;28;20059;-62
2023/06/06 04:44:03;;;;;;;6.35;4.00;;;;;;;11.29;100.00;97314.66;4972270;28;20047;-62
2023/06/06 04:46:30;;;;;;;7.43;4.50;;;;;;;11.35;100.00;97318.22;4951058;28;20074;-63
2023/06/06 04:48:59;;;;;;;6.65;4.50;;;;;;;11.40;100.00;97321.00;4959031;28;20118;-63
2023/06/06 04:51:32;;;;;;;5.85;3.85;;;;;;;11.57;100.00;97320.00;4956480;28;20053;-63
2023/06/06 04:54:01;;;;;;;8.43;4.18;;;;;;;11.63;100.00;97327.13;4957234;28;20047;-62
2023/06/06 04:56:28;;;;;;;6.90;4.35;;;;;;;11.73;100.00;97317.41;4957578;28;20078;-63
2023/06/06 04:59:05;;;;;;;6.68;3.90;;;;;;;11.81;100.00;97333.19;4960008;28;20047;-63
2023/06/06 05:01:36;;;;;;;8.15;4.63;;;;;;;11.82;100.00;97327.53;4960083;28;20039;-63
2023/06/06 05:04:04;;;;;;;6.18;4.32;;;;;;;11.87;100.00;97329.44;4959272;28;20047;-63
2023/06/06 05:06:31;;;;;;;6.82;4.47;;;;;;;11.88;100.00;97332.97;4953212;28;20426;-63
2023/06/06 05:09:00;;;;;;;6.80;4.35;;;;;;;12.02;100.00;97330.63;4956311;28;20510;-63
2023/06/06 05:11:27;;;;;;;11.00;4.40;;;;;;;12.12;100.00;97330.69;4955357;28;20062;-63
2023/06/06 05:13:53;;;;;;;8.70;4.57;;;;;;;12.39;100.00;97326.22;4955456;28;20051;-63
2023/06/06 05:16:20;;;;;;;7.85;4.53;;;;;;;12.46;100.00;97327.59;4958185;28;20136;-63
2023/06/06 05:18:46;;;;;;;7.03;4.28;;;;;;;12.58;100.00;97329.28;4958798;28;20331;-63
2023/06/06 05:21:18;;;;;;;10.32;4.78;;;;;;;12.68;100.00;97332.03;4956529;28;20050;-63
2023/06/06 05:23:45;;;;;;;;;;;;;;;12.85;100.00;97342.69;4957233;28;20066;-63
2023/06/06 05:26:11;;;;;;;6.97;4.35;;;;;;;12.99;100.00;97334.84;4962144;28;19933;-63
2023/06/06 05:28:38;;;;;;;6.75;4.43;;;;;;;13.10;100.00;97335.69;4957722;28;20090;-63
2023/06/06 05:31:07;;;;;;;6.03;3.80;;;;;;;13.32;100.00;97340.06;4956410;28;20043;-63
2023/06/06 05:33:39;;;;;;;6.90;4.20;;;;;;;13.58;99.87;97344.72;4955640;28;20593;-63
2023/06/06 05:36:05;;;;;;;5.80;3.60;;;;;;;13.86;94.79;97343.31;4957200;28;20415;-63
2023/06/06 05:38:32;;;;;;;8.60;4.03;;;;;;;14.14;91.98;97353.91;4956179;28;20058;-63
2023/06/06 05:40:59;;;;;;;6.53;3.75;;;;;;;14.38;90.13;97350.56;4960216;28;20122;-63
2023/06/06 05:43:26;;;;;;;7.63;3.92;;;;;;;14.62;88.43;97347.19;4961159;28;20043;-63
2023/06/06 05:45:52;;;;;;;6.85;3.88;;;;;;;14.80;86.03;97352.06;4963374;28;20138;-63
2023/06/06 05:48:19;;;;;;;6.32;3.70;;;;;;;14.93;86.06;97350.63;4960757;28;20824;-63
2023/06/06 05:50:45;;;;;;;6.25;3.83;;;;;;;15.02;84.85;97344.59;4963489;28;20050;-63
2023/06/06 05:53:12;;;;;;;8.95;3.55;;;;;;;15.12;84.68;97347.28;4962121;28;20510;-63
2023/06/06 05:55:39;;;;;;;8.25;3.78;;;;;;;15.19;83.53;97355.94;4957955;28;20042;-63
2023/06/06 05:58:05;;;;;;;7.32;4.28;;;;;;;15.33;83.30;97350.66;4955382;28;20054;-62
2023/06/06 06:00:34;;;;;;;8.88;3.88;;;;;;;15.44;82.00;97359.59;4959895;28;20047;-62
2023/06/06 06:03:01;;;;;;;7.75;3.75;;;;;;;15.45;81.97;97355.75;4955361;28;20051;-62
2023/06/06 06:05:29;;;;;;;9.32;4.32;;;;;;;15.54;81.29;97355.97;4958262;28;20058;-62
2023/06/06 06:08:00;;;;;;;10.68;4.13;;;;;;;15.56;80.92;97355.69;4961795;28;20126;-62
2023/06/06 06:10:32;;;;;;;12.73;4.22;;;;;;;15.65;80.38;97356.69;4953182;28;20059;-62
2023/06/06 06:13:00;;;;;;;9.10;3.88;;;;;;;15.73;80.39;97356.09;4957523;28;20045;-62
2023/06/06 06:15:32;;;;;;;9.25;3.58;;;;;;;15.81;77.53;97353.84;4958938;28;20560;-62
2023/06/06 06:18:00;;;;;;;5.68;3.83;;;;;;;15.86;76.81;97364.72;4957932;28;20601;-62
2023/06/06 06:20:26;;;;;;;8.63;3.92;;;;;;;15.97;76.62;97371.75;4955009;28;20043;-62
2023/06/06 06:22:53;;;;;;;9.55;3.85;;;;;;;15.93;76.47;97365.22;4955095;28;20047;-62
2023/06/06 06:25:20;;;;;;;11.07;3.83;;;;;;;15.88;76.21;97364.44;4957507;28;20067;-62
2023/06/06 06:27:47;;;;;;;8.18;3.50;;;;;;;15.84;76.50;97366.91;4955773;28;20058;-63
2023/06/06 06:30:14;;;;;;;8.07;3.67;;;;;;;15.82;76.71;97371.84;4959459;28;20122;-63
2023/06/06 06:32:43;;;;;;;7.43;2.88;;;;;;;15.97;75.97;97369.03;4955382;28;20034;-43
2023/06/06 06:35:10;;;;;;;7.18;3.08;;;;;;;16.13;75.59;97368.84;4958275;28;20047;-45
2023/06/06 06:37:37;;;;;;;5.55;3.30;;;;;;;16.33;75.40;97375.22;4958646;28;20117;-43
2023/06/06 06:40:11;;;;;;;8.13;3.65;;;;;;;16.62;73.09;97379.81;4958713;28;20101;-48
2023/06/06 06:42:40;;;;;;;6.93;4.20;;;;;;;16.83;72.15;97383.13;4961503;28;20086;-47
2023/06/06 06:45:36;;;;;;;6.90;3.55;;;;;;;17.14;71.07;97384.66;4939163;28;21472;-49
2023/06/06 06:48:02;;;;;;;7.15;3.72;;;;;;;17.18;70.33;97387.63;4957257;28;20624;-46
2023/06/06 06:50:29;;;;;;;6.25;3.22;;;;;;;17.27;69.78;97386.66;4958960;28;20097;-44
2023/06/06 06:52:56;;;;;;;5.60;3.17;;;;;;;17.36;69.56;97383.25;4951941;28;20077;-43
2023/06/06 06:55:26;;;;;;;5.40;2.85;;;;;;;17.68;67.34;97395.34;4958371;28;20557;-43
2023/06/06 06:57:53;;;;;;;6.78;3.58;;;;;;;17.66;66.75;97383.91;4955872;28;20084;-45
2023/06/06 07:00:23;;;;;;;5.00;3.00;;;;;;;17.65;67.36;97382.25;4954127;28;20216;-42
2023/06/06 07:02:53;;;;;;;8.82;3.80;;;;;;;17.91;64.59;97379.13;4953099;28;20118;-40
2023/06/06 07:05:20;;;;;;;7.20;3.35;;;;;;;18.03;63.81;97386.84;4957453;28;20261;-42
2023/06/06 07:07:53;;;;;;;12.82;4.05;;;;;;;17.96;63.08;97391.91;4959141;28;20051;-41
2023/06/06 07:10:23;;;;;;;8.55;3.40;;;;;;;17.76;63.32;97386.47;4961717;28;20674;-45
2023/06/06 07:12:52;;;;;;;7.47;3.88;;;;;;;17.68;63.70;97381.66;4962488;28;20412;-43
2023/06/06 07:15:24;;;;;;;9.40;3.20;;;;;;;17.58;63.90;97385.38;4963340;28;20059;-48
2023/06/06 07:17:50;;;;;;;9.88;4.45;;;;;;;17.74;64.26;97382.41;4959952;28;20637;-43
2023/06/06 07:20:23;;;;;;;7.32;3.38;;;;;;;17.92;63.37;97388.97;4958956;28;20129;-42
2023/06/06 07:22:55;;;;;;;5.45;2.83;;;;;;;17.85;61.49;97386.59;4951252;28;20154;-47
2023/06/06 07:25:22;;;;;;;5.90;3.10;;;;;;;17.77;61.67;97379.88;4954226;28;20043;-41
2023/06/06 07:27:49;;;;;;;7.10;3.67;;;;;;;17.73;61.73;97386.25;4953694;28;20038;-42
2023/06/06 07:30:15;;;;;;;5.43;2.63;;;;;;;17.93;62.75;97379.63;4958291;28;20043;-40
2023/06/06 07:32:44;;;;;;;8.48;3.38;;;;;;;18.11;60.80;97379.91;4959869;28;20126;-46
2023/06/06 07:35:12;;;;;;;6.53;2.67;;;;;;;18.49;60.12;97387.13;4957647;28;20122;-45
2023/06/06 07:37:39;;;;;;;7.47;2.70;;;;;;;18.65;59.06;97391.22;4955128;28;20039;-49
2023/06/06 07:40:08;;;;;;;7.18;2.42;;;;;;;18.75;57.81;97386.66;4954865;28;20089;-45
2023/06/06 07:42:35;;;;;;;5.25;2.80;;;;;;;18.81;56.49;97385.44;4958521;28;20043;-46
2023/06/06 07:45:03;;;;;;;4.53;2.67;;;;;;;18.91;55.87;97381.66;4950841;28;20058;-44
2023/06/06 07:47:29;;;;;;;6.13;2.90;;;;;;;19.04;55.97;97380.81;4951330;28;20031;-49
2023/06/06 07:49:57;;;;;;;5.47;2.63;;;;;;;19.16;54.36;97379.53;4960581;28;20510;-42
2023/06/06 07:52:24;;;;;;;5.22;2.97;;;;;;;19.28;54.72;97376.22;4962995;28;20051;-46
2023/06/06 07:54:51;;;;;;;5.63;2.85;;;;;;;19.36;53.89;97379.03;4955788;28;20126;-44
2023/06/06 07:57:19;;;;;;;6.47;2.70;;;;;;;19.41;54.15;97380.03;4962315;28;20034;-45
2023/06/06 07:59:46;;;;;;;7.57;3.25;;;;;;;19.47;54.42;97371.38;4963647;28;20081;-45
2023/06/06 08:02:14;;;;;;;8.27;3.00;;;;;;;19.55;52.65;97372.59;4953824;28;20682;-43
2023/06/06 08:04:45;;;;;;;4.32;2.45;;;;;;;19.32;53.46;97372.53;4962970;28;20066;-44
2023/06/06 08:07:15;;;;;;;5.07;2.80;;;;;;;19.52;53.25;97373.19;4957746;28;20101;-45
2023/06/06 08:09:42;;;;;;;5.03;2.95;;;;;;;19.60;53.00;97377.13;4952089;28;20082;-47
2023/06/06 08:12:11;;;;;;;5.55;2.90;;;;;;;19.57;53.10;97378.56;4955521;28;20043;-43
2023/06/06 08:14:38;;;;;;;5.70;2.67;;;;;;;19.68;53.05;97378.34;4955448;28;20818;-45
2023/06/06 08:17:06;;;;;;;6.25;2.78;;;;;;;19.69;52.15;97380.78;4957796;28;20470;-49
2023/06/06 08:19:33;;;;;;;9.93;3.13;;;;;;;19.84;52.83;97382.34;4957677;28;20042;-44
2023/06/06 08:22:01;;;;;;;5.75;2.70;;;;;;;19.89;51.97;97381.38;4958926;28;20528;-45
2023/06/06 08:24:28;;;;;;;9.68;3.65;;;;;;;19.94;52.54;97386.72;4960993;28;20050;-47
2023/06/06 08:26:55;;;;;;;5.63;2.67;;;;;;;19.96;50.06;97380.94;4964391;28;20616;-43
2023/06/06 08:29:22;;;;;;;5.22;2.50;;;;;;;19.91;50.39;97387.38;4959644;28;20049;-43
2023/06/06 08:31:49;;;;;;;4.28;2.47;;;;;;;19.97;50.30;97382.56;4956446;28;20075;-43
2023/06/06 08:34:16;;;;;;;4.65;2.40;;;;;;;19.95;47.61;97382.06;4960092;28;20502;-43
2023/06/06 08:36:42;;;;;;;5.53;2.47;;;;;;;20.02;48.65;97379.72;4955753;28;21659;-43
2023/06/06 08:39:09;;;;;;;5.25;2.40;;;;;;;20.04;49.77;97377.47;4961911;28;20547;-41
2023/06/06 08:41:35;;;;;;;5.88;2.50;;;;;;;20.16;47.54;97374.13;4974825;28;20689;-44
2023/06/06 08:44:03;;;;;;;6.88;2.35;;;;;;;19.91;47.43;97381.06;4959752;28;20050;-44
2023/06/06 08:46:33;;;;;;;5.05;2.15;;;;;;;19.95;47.97;97377.38;4959912;28;20495;-41
2023/06/06 08:49:06;;;;;;;5.30;2.50;;;;;;;20.01;48.98;97387.16;4955539;28;20047;-43
2023/06/06 08:51:34;;;;;;;5.35;2.40;;;;;;;20.18;48.23;97385.63;4959949;28;20082;-43
2023/06/06 08:54:02;;;;;;;4.53;2.60;;;;;;;20.35;47.96;97375.84;4964981;28;20046;-41
2023/06/06 08:56:28;;;;;;;8.00;2.80;;;;;;;20.32;48.17;97387.47;4959582;28;20043;-41
2023/06/06 08:58:55;;;;;;;6.72;2.47;;;;;;;20.25;48.08;97382.44;4962154;28;20043;-45
2023/06/06 09:01:24;;;;;;;6.45;2.70;;;;;;;20.36;48.32;97393.97;4953797;28;20038;-41
2023/06/06 09:03:56;;;;;;;4.75;2.50;;;;;;;20.42;48.35;97387.22;4953321;28;20051;-43
2023/06/06 09:06:22;;;;;;;4.97;3.03;;;;;;;20.57;48.80;97385.16;4962410;28;20600;-44
2023/06/06 09:08:50;;;;;;;16.25;5.88;;;;;;;20.54;47.96;97384.66;4959900;28;20058;-42
2023/06/06 09:11:17;;;;;;;5.50;3.03;;;;;;;20.65;49.39;97382.41;4957967;28;20075;-45
2023/06/06 09:13:45;;;;;;;5.72;2.63;;;;;;;20.61;48.52;97386.16;4960904;28;20058;-45
2023/06/06 09:16:14;;;;;;;7.65;3.03;;;;;;;20.64;48.87;97385.50;4960671;28;20502;-46
2023/06/06 09:18:42;;;;;;;5.22;2.38;;;;;;;20.60;49.41;97381.78;4961290;28;20130;-42
2023/06/06 09:21:12;;;;;;;6.95;3.10;;;;;;;20.80;48.03;97381.16;4956078;28;20138;-44
2023/06/06 09:23:39;;;;;;;4.63;2.95;;;;;;;20.59;48.65;97383.72;4956490;28;20051;-44
2023/06/06 09:26:19;;;;;;;5.57;2.85;;;;;;;20.59;48.83;97380.97;4957082;28;20046;-43
2023/06/06 09:28:45;;;;;;;7.40;2.80;;;;;;;20.84;48.94;97381.38;4956394;28;20821;-43
2023/06/06 09:31:39;;;;;;;6.55;2.88;;;;;;;20.79;49.95;97382.31;4957540;28;20047;-44
2023/06/06 09:34:08;;;;;;;5.45;3.13;;;;;;;20.94;49.12;97380.28;4955799;28;20129;-48
2023/06/06 09:36:40;;;;;;;4.90;2.97;;;;;;;21.00;49.15;97378.16;4960201;28;20042;-42
2023/06/06 09:39:17;;;;;;;5.78;2.90;;;;;;;20.77;49.25;97376.34;4960555;28;20561;-43
2023/06/06 09:41:46;;;;;;;5.13;2.67;;;;;;;20.99;48.99;97380.13;4962324;28;20108;-43
2023/06/06 09:44:20;;;;;;;5.30;2.70;;;;;;;21.10;48.13;97371.56;4961367;28;20053;-43
2023/06/06 09:46:48;;;;;;;5.63;2.72;;;;;;;21.18;47.38;97377.09;4961347;28;20709;-44
2023/06/06 09:49:15;;;;;;;5.78;3.10;;;;;;;21.02;48.43;97384.19;4959026;28;20065;-44
2023/06/06 09:51:42;;;;;;;8.13;3.55;;;;;;;20.98;48.47;97380.44;4959748;28;20089;-47
2023/06/06 09:54:10;;;;;;;4.85;3.03;;;;;;;20.88;47.83;97376.88;4962605;28;20457;-50
2023/06/06 09:56:40;;;;;;;5.28;3.05;;;;;;;20.87;48.04;97374.41;4961602;28;20042;-45
2023/06/06 09:59:10;;;;;;;6.13;3.00;;;;;;;20.77;48.73;97381.00;4959535;28;20081;-47
2023/06/06 10:01:40;;;;;;;5.10;3.13;;;;;;;21.15;49.35;97372.22;4962426;28;20043;-44
2023/06/06 10:04:08;;;;;;;7.53;3.15;;;;;;;21.49;47.99;97378.06;4956206;28;20049;-47
2023/06/06 10:06:38;;;;;;;7.88;3.22;;;;;;;21.64;46.00;97379.50;4965622;28;20050;-42
2023/06/06 10:09:05;;;;;;;8.13;3.20;;;;;;;21.51;46.69;97370.31;4958621;28;20042;-42
2023/06/06 10:11:36;;;;;;;6.68;3.17;;;;;;;21.55;46.98;97362.19;4957144;28;20782;-46
2023/06/06 10:14:05;;;;;;;6.28;3.47;;;;;;;21.49;46.02;97363.50;4960267;28;20461;-42
2023/06/06 10:16:35;;;;;;;7.13;3.88;;;;;;;21.52;45.50;97358.13;4956132;28;20050;-44
2023/06/06 10:19:03;;;;;;;8.07;3.30;;;;;;;21.43;45.89;97371.94;4959570;28;20135;-47
2023/06/06 10:21:31;;;;;;;5.53;3.33;;;;;;;21.51;45.21;97369.47;4951402;28;20413;-47
2023/06/06 10:23:58;;;;;;;7.25;3.47;;;;;;;21.38;45.49;97363.81;4961406;28;20047;-44
2023/06/06 10:26:42;;;;;;;5.70;3.50;;;;;;;21.41;44.64;97354.91;4956206;28;20084;-43
2023/06/06 10:29:37;;;;;;;4.80;2.90;;;;;;;21.42;44.46;97353.75;4957438;28;20097;-43
2023/06/06 10:32:12;;;;;;;5.40;3.22;;;;;;;21.31;44.43;97360.75;4955009;28;20050;-47
2023/06/06 10:34:42;;;;;;;5.82;3.40;;;;;;;21.22;44.99;97363.47;4960748;28;20038;-46
2023/06/06 10:37:16;;;;;;;8.85;3.22;;;;;;;21.28;45.10;97355.88;4959873;28;20091;-44
2023/06/06 10:39:46;;;;;;;6.40;3.50;;;;;;;21.37;44.86;97351.19;4954592;28;20226;-44
2023/06/06 10:42:13;;;;;;;6.88;3.63;;;;;;;21.55;43.92;97351.16;4961834;28;20122;-46
2023/06/06 10:44:54;;;;;;;6.55;2.80;;;;;;;21.53;43.58;97359.75;4957539;28;20043;-45
2023/06/06 10:47:26;;;;;;;4.90;3.40;;;;;;;21.47;43.21;97347.28;4964863;28;20380;-45
2023/06/06 10:50:02;;;;;;;5.85;3.15;;;;;;;21.44;44.43;97351.50;4959863;28;20045;-48
2023/06/06 10:52:29;;;;;;;6.03;3.20;;;;;;;21.31;44.52;97352.47;4952501;28;20474;-44
2023/06/06 10:54:59;;;;;;;5.57;3.00;;;;;;;21.50;44.74;97343.91;4958400;28;20050;-43
2023/06/06 10:57:25;;;;;;;7.32;3.05;;;;;;;21.72;44.52;97339.34;4958611;28;20458;-43
2023/06/06 10:59:52;;;;;;;5.30;3.03;;;;;;;21.77;44.53;97338.38;4953681;28;20548;-41
2023/06/06 11:02:34;;;;;;;6.25;3.25;;;;;;;22.22;44.88;97334.34;4950374;28;20054;-43
2023/06/06 11:05:02;;;;;;;5.72;2.85;;;;;;;22.38;43.41;97336.56;4957651;28;20559;-43
2023/06/06 11:07:29;;;;;;;9.10;3.10;;;;;;;22.14;42.77;97336.00;4955898;28;20137;-43
2023/06/06 11:09:56;;;;;;;6.40;2.92;;;;;;;22.20;43.43;97328.38;4956530;28;20043;-43
2023/06/06 11:12:27;;;;;;;5.10;3.20;;;;;;;22.14;43.85;97330.50;4954622;28;20433;-44
2023/06/06 11:14:57;;;;;;;4.93;3.10;;;;;;;22.14;41.99;97327.75;4951586;28;20043;-49
2023/06/06 11:17:31;;;;;;;4.72;2.78;;;;;;;22.24;40.62;97320.25;4957946;28;20134;-49
2023/06/06 11:20:00;;;;;;;9.50;3.30;;;;;;;22.38;39.85;97325.53;4954236;28;20043;-49
2023/06/06 11:22:29;;;;;;;7.63;2.88;;;;;;;22.62;40.24;97324.97;4958150;28;20122;-50
2023/06/06 11:24:55;;;;;;;4.78;2.50;;;;;;;22.99;39.88;97328.00;4962272;28;20043;-50
2023/06/06 11:27:22;;;;;;;5.90;2.67;;;;;;;23.16;38.62;97331.78;4952966;28;20043;-46
2023/06/06 11:29:52;;;;;;;4.68;2.63;;;;;;;22.82;38.09;97322.59;4953420;28;20043;-43
2023/06/06 11:32:19;;;;;;;4.10;2.70;;;;;;;22.83;38.11;97324.19;4954983;28;20423;-45
2023/06/06 11:34:46;;;;;;;4.88;2.75;;;;;;;22.70;39.52;97328.84;4951047;28;20101;-44
2023/06/06 11:37:13;;;;;;;5.05;2.70;;;;;;;22.86;39.41;97318.00;4948848;28;20066;-46